createdAt,value
2017-06-13T00:02:19.453Z,16.60
2017-06-13T00:04:47.046Z,16.60
2017-06-13T00:07:14.595Z,16.60
2017-06-13T00:09:42.136Z,16.50
2017-06-13T00:12:09.711Z,16.50
2017-06-13T00:14:37.284Z,16.50
2017-06-13T00:17:04.856Z,16.50
2017-06-13T00:19:32.404Z,16.50
2017-06-13T00:21:59.939Z,16.40
2017-06-13T00:24:27.509Z,16.40
2017-06-13T00:26:55.082Z,16.30
2017-06-13T00:29:22.632Z,16.30
2017-06-13T00:31:50.186Z,16.30
2017-06-13T00:34:18.897Z,16.40
2017-06-13T00:36:46.455Z,16.40
2017-06-13T00:39:14.007Z,16.50
2017-06-13T00:41:41.586Z,16.50
2017-06-13T00:44:09.155Z,16.50
2017-06-13T00:46:36.759Z,16.50
2017-06-13T00:49:04.331Z,16.50
2017-06-13T00:51:31.870Z,16.50
2017-06-13T00:54:03.676Z,16.60
2017-06-13T00:56:31.253Z,16.60
2017-06-13T00:58:58.790Z,16.60
2017-06-13T01:01:26.331Z,16.60
2017-06-13T01:03:53.899Z,16.60
2017-06-13T01:06:21.438Z,16.70
2017-06-13T01:08:48.987Z,16.70
2017-06-13T01:11:16.560Z,16.70
2017-06-13T01:13:44.109Z,16.60
2017-06-13T01:16:11.654Z,16.50
2017-06-13T01:18:39.217Z,16.50
2017-06-13T01:21:06.776Z,16.50
2017-06-13T01:23:34.320Z,16.60
2017-06-13T01:26:01.879Z,16.60
2017-06-13T01:28:29.417Z,16.60
2017-06-13T01:30:56.980Z,16.60
2017-06-13T01:33:24.537Z,16.70
2017-06-13T01:35:52.085Z,16.70
2017-06-13T01:38:19.631Z,16.70
2017-06-13T01:40:48.207Z,16.70
2017-06-13T01:43:15.757Z,16.70
2017-06-13T01:45:43.302Z,16.60
2017-06-13T01:48:11.854Z,16.60
2017-06-13T01:50:39.410Z,16.70
2017-06-13T01:53:06.969Z,16.70
2017-06-13T01:55:34.556Z,16.70
2017-06-13T01:58:02.090Z,16.70
2017-06-13T02:00:29.622Z,16.70
2017-06-13T02:02:57.191Z,16.70
2017-06-13T02:05:24.749Z,16.70
2017-06-13T02:07:52.305Z,16.70
2017-06-13T02:10:19.889Z,16.60
2017-06-13T02:12:47.429Z,16.60
2017-06-13T02:15:14.962Z,16.60
2017-06-13T02:17:43.538Z,16.60
2017-06-13T02:20:11.077Z,16.50
2017-06-13T02:22:38.619Z,16.50
2017-06-13T02:25:07.171Z,16.50
2017-06-13T02:27:34.702Z,16.50
2017-06-13T02:30:02.244Z,16.50
2017-06-13T02:32:29.820Z,16.40
2017-06-13T02:34:57.353Z,16.40
2017-06-13T02:37:24.897Z,16.40
2017-06-13T02:39:52.464Z,16.40
2017-06-13T02:42:20.015Z,16.30
2017-06-13T02:44:47.551Z,16.30
2017-06-13T02:47:15.121Z,16.30
2017-06-13T02:49:42.692Z,16.30
2017-06-13T02:52:10.256Z,16.30
2017-06-13T02:54:37.811Z,16.30
2017-06-13T02:57:05.364Z,16.30
2017-06-13T02:59:32.944Z,16.40
2017-06-13T03:02:00.497Z,16.30
2017-06-13T03:04:28.057Z,16.30
2017-06-13T03:06:55.620Z,16.30
2017-06-13T03:09:26.037Z,16.30
2017-06-13T03:11:53.598Z,16.30
2017-06-13T03:14:21.129Z,16.30
2017-06-13T03:16:48.662Z,16.30
2017-06-13T03:19:16.230Z,16.30
2017-06-13T03:21:43.768Z,16.20
2017-06-13T03:24:11.307Z,16.30
2017-06-13T03:26:38.858Z,16.20
2017-06-13T03:29:06.397Z,16.20
2017-06-13T03:31:33.981Z,16.10
2017-06-13T03:34:01.535Z,16.00
2017-06-13T03:36:29.086Z,15.80
2017-06-13T03:38:56.659Z,15.70
2017-06-13T03:41:24.206Z,15.60
2017-06-13T03:43:51.771Z,15.50
2017-06-13T03:46:19.311Z,15.40
2017-06-13T03:48:46.844Z,15.20
2017-06-13T03:51:14.416Z,15.10
2017-06-13T03:53:41.960Z,15.10
2017-06-13T03:56:09.511Z,15.00
2017-06-13T03:58:37.082Z,14.90
2017-06-13T04:01:04.638Z,14.90
2017-06-13T04:03:32.173Z,14.80
2017-06-13T04:05:59.761Z,14.70
2017-06-13T04:08:27.286Z,14.60
2017-06-13T04:10:54.841Z,14.50
2017-06-13T04:13:22.418Z,14.50
2017-06-13T04:15:49.959Z,14.50
2017-06-13T04:18:17.554Z,14.60
2017-06-13T04:20:45.135Z,14.80
2017-06-13T04:23:12.688Z,14.70
2017-06-13T04:25:40.275Z,14.80
2017-06-13T04:28:07.816Z,15.00
2017-06-13T04:30:35.368Z,14.90
2017-06-13T04:33:03.911Z,15.00
2017-06-13T04:35:31.453Z,15.00
2017-06-13T04:37:58.994Z,14.90
2017-06-13T04:40:26.569Z,15.00
2017-06-13T04:42:54.102Z,15.20
2017-06-13T04:45:21.653Z,15.50
2017-06-13T04:47:49.214Z,15.60
2017-06-13T04:50:16.754Z,15.60
2017-06-13T04:52:44.280Z,15.60
2017-06-13T04:55:11.840Z,15.70
2017-06-13T04:57:39.372Z,15.90
2017-06-13T05:00:06.916Z,15.90
2017-06-13T05:02:34.481Z,16.00
2017-06-13T05:05:02.016Z,16.00
2017-06-13T05:07:29.556Z,16.20
2017-06-13T05:09:57.101Z,16.40
2017-06-13T05:12:24.870Z,16.70
2017-06-13T05:14:52.427Z,16.90
2017-06-13T05:17:19.998Z,17.20
2017-06-13T05:19:47.553Z,17.60
2017-06-13T05:22:15.137Z,18.40
2017-06-13T05:24:42.702Z,19.30
2017-06-13T05:27:10.219Z,20.20
2017-06-13T05:29:37.759Z,20.70
2017-06-13T05:32:05.320Z,20.70
2017-06-13T05:34:32.881Z,20.20
2017-06-13T05:37:00.452Z,20.20
2017-06-13T05:39:28.026Z,20.70
2017-06-13T05:41:55.736Z,21.10
2017-06-13T05:44:23.311Z,20.70
2017-06-13T05:46:50.887Z,20.60
2017-06-13T05:49:18.429Z,21.20
2017-06-13T05:51:46.072Z,21.80
2017-06-13T05:54:14.662Z,22.40
2017-06-13T05:56:42.243Z,22.30
2017-06-13T05:59:09.809Z,22.20
2017-06-13T06:01:37.359Z,22.20
2017-06-13T06:04:04.902Z,22.00
2017-06-13T06:06:32.487Z,21.90
2017-06-13T06:09:00.056Z,21.80
2017-06-13T06:11:27.600Z,22.00
2017-06-13T06:13:55.191Z,22.10
2017-06-13T06:16:22.755Z,22.60
2017-06-13T06:18:50.330Z,22.50
2017-06-13T06:21:17.905Z,22.50
2017-06-13T06:23:45.453Z,22.90
2017-06-13T06:26:12.999Z,22.80
2017-06-13T06:28:40.571Z,23.00
2017-06-13T06:31:08.124Z,23.00
2017-06-13T06:33:35.680Z,23.00
2017-06-13T06:36:03.255Z,23.40
2017-06-13T06:38:30.822Z,23.40
2017-06-13T06:40:58.364Z,23.30
2017-06-13T06:43:25.944Z,23.90
2017-06-13T06:45:53.487Z,24.40
2017-06-13T06:48:21.047Z,24.90
2017-06-13T06:50:48.646Z,25.60
2017-06-13T06:53:16.211Z,26.40
2017-06-13T06:55:43.746Z,26.90
2017-06-13T06:58:11.314Z,26.70
2017-06-13T07:00:38.843Z,26.40
2017-06-13T07:03:06.388Z,26.10
2017-06-13T07:05:33.947Z,26.30
2017-06-13T07:08:01.531Z,26.80
2017-06-13T07:10:29.095Z,26.90
2017-06-13T07:12:56.767Z,26.70
2017-06-13T07:15:24.310Z,26.60
2017-06-13T07:17:51.854Z,26.20
2017-06-13T07:20:19.425Z,26.00
2017-06-13T07:22:46.980Z,25.90
2017-06-13T07:25:14.546Z,25.30
2017-06-13T07:27:42.130Z,24.90
2017-06-13T07:30:09.673Z,25.00
2017-06-13T07:32:37.200Z,24.50
2017-06-13T07:35:04.767Z,25.00
2017-06-13T07:37:32.371Z,25.90
2017-06-13T07:39:59.906Z,27.10
2017-06-13T07:42:27.446Z,27.80
2017-06-13T07:44:54.994Z,27.70
2017-06-13T07:47:22.565Z,28.00
2017-06-13T07:49:51.142Z,27.60
2017-06-13T07:52:18.685Z,27.20
2017-06-13T07:54:46.234Z,27.40
2017-06-13T07:57:14.800Z,27.50
2017-06-13T07:59:42.375Z,27.60
2017-06-13T08:02:09.946Z,28.20
2017-06-13T08:04:37.506Z,29.10
2017-06-13T08:07:05.059Z,29.50
2017-06-13T08:09:32.621Z,30.10
2017-06-13T08:12:00.212Z,29.70
2017-06-13T08:14:27.773Z,29.10
2017-06-13T08:16:55.308Z,29.40
2017-06-13T08:19:22.878Z,29.90
2017-06-13T08:21:50.410Z,30.40
2017-06-13T08:24:17.943Z,30.40
2017-06-13T08:26:45.529Z,30.00
2017-06-13T08:29:13.087Z,29.70
2017-06-13T08:31:40.654Z,30.50
2017-06-13T08:34:08.228Z,31.10
2017-06-13T08:36:35.754Z,31.40
2017-06-13T08:39:03.337Z,31.20
2017-06-13T08:41:30.874Z,31.70
2017-06-13T08:43:58.433Z,31.80
2017-06-13T08:46:26.028Z,32.30
2017-06-13T08:48:53.582Z,31.70
2017-06-13T08:51:21.149Z,31.80
2017-06-13T08:53:48.699Z,31.50
2017-06-13T08:56:16.276Z,31.60
2017-06-13T08:58:43.830Z,31.00
2017-06-13T09:01:11.376Z,29.90
2017-06-13T09:03:38.921Z,29.00
2017-06-13T09:06:06.500Z,28.40
2017-06-13T09:08:34.059Z,27.90
2017-06-13T09:11:01.598Z,28.30
2017-06-13T09:13:29.164Z,28.30
2017-06-13T09:15:56.714Z,28.00
2017-06-13T09:18:24.270Z,27.90
2017-06-13T09:22:11.774Z,28.60
2017-06-13T09:24:39.358Z,29.50
2017-06-13T09:27:06.897Z,30.30
2017-06-13T09:29:34.457Z,30.60
2017-06-13T09:32:02.035Z,31.00
2017-06-13T09:34:29.582Z,31.80
2017-06-13T09:36:57.156Z,31.10
2017-06-13T09:39:24.692Z,30.20
2017-06-13T09:41:52.258Z,29.10
2017-06-13T09:44:19.852Z,29.60
2017-06-13T09:46:47.391Z,30.20
2017-06-13T09:49:14.940Z,29.90
2017-06-13T09:51:42.507Z,30.30
2017-06-13T09:54:10.028Z,31.10
2017-06-13T09:56:37.572Z,31.60
2017-06-13T09:59:06.140Z,31.60
2017-06-13T10:01:33.680Z,32.20
2017-06-13T10:04:01.224Z,32.30
2017-06-13T10:06:28.785Z,32.50
2017-06-13T10:08:56.340Z,32.40
2017-06-13T10:11:23.970Z,32.50
2017-06-13T10:13:51.550Z,32.60
2017-06-13T10:16:19.113Z,32.70
2017-06-13T10:18:46.655Z,32.70
2017-06-13T10:21:14.214Z,32.70
2017-06-13T10:23:41.783Z,32.40
2017-06-13T10:26:09.325Z,31.40
2017-06-13T10:28:37.881Z,31.40
2017-06-13T10:31:05.442Z,32.40
2017-06-13T10:33:32.980Z,33.10
2017-06-13T10:36:00.545Z,33.50
2017-06-13T10:38:28.091Z,33.60
2017-06-13T10:40:55.638Z,33.60
2017-06-13T10:43:23.260Z,33.30
2017-06-13T10:45:50.797Z,33.00
2017-06-13T10:48:18.344Z,32.60
2017-06-13T10:50:46.910Z,32.50
2017-06-13T10:53:14.470Z,32.80
2017-06-13T10:55:42.047Z,32.20
2017-06-13T10:58:09.600Z,32.30
2017-06-13T11:00:38.159Z,32.40
2017-06-13T11:03:05.740Z,32.50
2017-06-13T11:05:33.278Z,32.80
2017-06-13T11:08:00.856Z,32.90
2017-06-13T11:10:28.451Z,33.10
2017-06-13T11:12:55.993Z,33.40
2017-06-13T11:15:23.568Z,33.20
2017-06-13T11:17:51.160Z,34.20
2017-06-13T11:20:18.690Z,34.30
2017-06-13T11:22:47.240Z,34.60
2017-06-13T11:25:14.833Z,34.30
2017-06-13T11:27:43.028Z,34.60
2017-06-13T11:30:10.618Z,34.90
2017-06-13T11:32:38.205Z,34.80
2017-06-13T11:35:05.752Z,34.00
2017-06-13T11:37:33.434Z,33.50
2017-06-13T11:40:01.010Z,33.60
2017-06-13T11:42:28.560Z,34.30
2017-06-13T11:44:56.128Z,34.20
2017-06-13T11:47:23.684Z,34.10
2017-06-13T11:49:51.300Z,34.40
2017-06-13T11:52:18.837Z,34.40
2017-06-13T11:54:46.390Z,33.90
2017-06-13T11:57:13.956Z,33.80
2017-06-13T11:59:41.497Z,33.10
2017-06-13T12:02:09.149Z,31.90
2017-06-13T12:04:38.065Z,32.20
2017-06-13T12:07:05.670Z,33.40
2017-06-13T12:09:33.226Z,33.10
2017-06-13T12:12:00.772Z,32.60
2017-06-13T12:14:28.376Z,33.00
2017-06-13T12:16:55.929Z,33.00
2017-06-13T12:19:23.466Z,32.90
2017-06-13T12:21:51.012Z,33.70
2017-06-13T12:24:18.751Z,33.80
2017-06-13T12:26:46.301Z,33.70
2017-06-13T12:29:13.970Z,33.70
2017-06-13T12:31:41.558Z,34.50
2017-06-13T12:34:09.081Z,34.70
2017-06-13T12:36:36.634Z,35.30
2017-06-13T12:39:04.210Z,35.40
2017-06-13T12:41:31.768Z,34.20
2017-06-13T12:43:59.332Z,33.60
2017-06-13T12:46:26.897Z,33.50
2017-06-13T12:48:54.576Z,33.30
2017-06-13T12:51:22.156Z,34.10
2017-06-13T12:53:49.702Z,35.10
2017-06-13T12:56:17.248Z,35.70
2017-06-13T12:58:44.795Z,35.10
2017-06-13T13:01:13.385Z,34.40
2017-06-13T13:03:41.910Z,34.40
2017-06-13T13:06:09.443Z,34.10
2017-06-13T13:08:37.003Z,33.80
2017-06-13T13:11:04.566Z,32.70
2017-06-13T13:13:32.098Z,32.40
2017-06-13T13:15:59.646Z,33.30
2017-06-13T13:18:27.216Z,33.80
2017-06-13T13:20:54.822Z,33.50
2017-06-13T13:23:22.372Z,32.40
2017-06-13T13:25:49.954Z,30.90
2017-06-13T13:28:17.518Z,29.80
2017-06-13T13:30:45.081Z,29.00
2017-06-13T13:33:12.731Z,28.80
2017-06-13T13:35:40.286Z,28.90
2017-06-13T13:38:07.827Z,30.00
2017-06-13T13:40:35.388Z,31.50
2017-06-13T13:43:02.923Z,32.80
2017-06-13T13:45:30.500Z,33.20
2017-06-13T13:47:58.085Z,33.40
2017-06-13T13:50:25.632Z,33.80
2017-06-13T13:52:53.165Z,34.10
2017-06-13T13:55:20.738Z,34.60
2017-06-13T13:57:48.335Z,34.60
2017-06-13T14:00:15.888Z,34.30
2017-06-13T14:02:43.463Z,34.40
2017-06-13T14:05:11.008Z,34.90
2017-06-13T14:07:38.536Z,35.00
2017-06-13T14:10:06.119Z,34.40
2017-06-13T14:12:33.654Z,34.10
2017-06-13T14:15:01.194Z,33.90
2017-06-13T14:17:28.768Z,33.00
2017-06-13T14:19:56.314Z,32.80
2017-06-13T14:22:23.876Z,33.10
2017-06-13T14:24:51.435Z,33.50
2017-06-13T14:27:18.977Z,34.60
2017-06-13T14:29:46.549Z,35.20
2017-06-13T14:32:14.118Z,35.50
2017-06-13T14:34:41.669Z,35.60
2017-06-13T14:37:09.264Z,35.50
2017-06-13T14:39:37.835Z,35.20
2017-06-13T14:42:05.390Z,35.30
2017-06-13T14:44:32.940Z,35.20
2017-06-13T14:47:00.515Z,35.70
2017-06-13T14:49:28.080Z,35.90
2017-06-13T14:51:55.623Z,36.20
2017-06-13T14:54:23.218Z,36.50
2017-06-13T14:56:50.788Z,36.30
2017-06-13T14:59:18.354Z,36.60
2017-06-13T15:01:45.932Z,36.40
2017-06-13T15:04:13.469Z,35.60
2017-06-13T15:06:40.995Z,35.70
2017-06-13T15:09:09.517Z,35.40
2017-06-13T15:11:37.071Z,34.80
2017-06-13T15:14:04.674Z,34.10
2017-06-13T15:16:32.232Z,34.60
2017-06-13T15:18:59.772Z,35.10
2017-06-13T15:21:27.325Z,35.60
2017-06-13T15:23:54.914Z,36.30
2017-06-13T15:26:22.471Z,36.80
2017-06-13T15:28:50.082Z,37.20
2017-06-13T15:31:17.653Z,37.40
2017-06-13T15:33:45.196Z,37.60
2017-06-13T15:36:12.711Z,36.80
2017-06-13T15:38:40.276Z,36.80
2017-06-13T15:41:07.831Z,37.30
2017-06-13T15:43:35.377Z,37.50
2017-06-13T15:46:02.940Z,37.50
2017-06-13T15:48:30.529Z,37.60
2017-06-13T15:50:58.076Z,37.80
2017-06-13T15:53:25.634Z,37.50
2017-06-13T15:55:53.204Z,37.30
2017-06-13T15:58:20.765Z,37.40
2017-06-13T16:00:48.979Z,37.90
2017-06-13T16:03:16.553Z,38.50
2017-06-13T16:05:44.115Z,37.30
2017-06-13T16:08:11.685Z,36.50
2017-06-13T16:10:39.210Z,36.10
2017-06-13T16:13:06.751Z,35.90
2017-06-13T16:15:34.366Z,36.30
2017-06-13T16:18:01.911Z,36.70
2017-06-13T16:20:29.447Z,37.10
2017-06-13T16:22:57.046Z,37.80
2017-06-13T16:25:24.609Z,38.50
2017-06-13T16:27:52.151Z,38.80
2017-06-13T16:30:20.310Z,37.40
2017-06-13T16:32:48.408Z,36.20
2017-06-13T16:35:16.010Z,35.20
2017-06-13T16:37:43.607Z,34.90
2017-06-13T16:40:11.151Z,34.50
2017-06-13T16:42:38.682Z,33.50
2017-06-13T16:45:06.290Z,31.90
2017-06-13T16:47:33.861Z,30.20
2017-06-13T16:50:01.404Z,28.70
2017-06-13T16:52:28.974Z,27.70
2017-06-13T16:54:56.514Z,27.10
2017-06-13T16:57:24.152Z,26.50
2017-06-13T16:59:51.735Z,26.20
2017-06-13T17:02:19.360Z,25.80
2017-06-13T17:04:46.916Z,25.60
2017-06-13T17:07:14.532Z,25.30
2017-06-13T17:09:42.081Z,25.10
2017-06-13T17:12:10.570Z,24.90
2017-06-13T17:14:38.145Z,24.70
2017-06-13T17:17:05.695Z,24.50
2017-06-13T17:19:33.234Z,24.20
2017-06-13T17:22:00.795Z,24.10
2017-06-13T17:24:28.354Z,23.90
2017-06-13T17:26:55.901Z,23.70
2017-06-13T17:29:23.465Z,23.70
2017-06-13T17:31:51.016Z,23.60
2017-06-13T17:34:18.547Z,23.70
2017-06-13T17:36:46.316Z,23.60
2017-06-13T17:39:13.843Z,23.50
2017-06-13T17:41:41.393Z,23.30
2017-06-13T17:44:08.953Z,23.20
2017-06-13T17:46:36.480Z,23.10
2017-06-13T17:49:04.020Z,23.10
2017-06-13T17:51:32.587Z,23.00
2017-06-13T17:54:00.136Z,22.90
2017-06-13T17:56:27.683Z,22.80
2017-06-13T17:58:55.244Z,22.70
2017-06-13T18:01:22.776Z,22.60
2017-06-13T18:03:50.305Z,22.50
2017-06-13T18:06:17.897Z,22.40
2017-06-13T18:08:45.423Z,22.40
2017-06-13T18:11:12.950Z,22.30
2017-06-13T18:13:40.604Z,22.20
2017-06-13T18:16:08.190Z,22.10
2017-06-13T18:18:35.923Z,22.10
2017-06-13T18:21:03.810Z,22.00
2017-06-13T18:23:31.568Z,21.80
2017-06-13T18:25:59.329Z,21.70
2017-06-13T18:28:26.957Z,21.60
2017-06-13T18:30:54.542Z,21.50
2017-06-13T18:33:22.096Z,21.40
2017-06-13T18:35:49.672Z,21.40
2017-06-13T18:38:17.222Z,21.30
2017-06-13T18:40:44.777Z,21.20
2017-06-13T18:43:12.358Z,21.10
2017-06-13T18:45:39.911Z,21.00
2017-06-13T18:48:07.462Z,20.90
2017-06-13T18:50:35.027Z,20.90
2017-06-13T18:53:02.652Z,20.70
2017-06-13T18:55:30.200Z,20.60
2017-06-13T18:57:57.763Z,20.40
2017-06-13T19:00:25.381Z,20.30
2017-06-13T19:02:52.988Z,20.10
2017-06-13T19:05:20.675Z,20.00
2017-06-13T19:07:48.209Z,19.90
2017-06-13T19:10:15.762Z,19.80
2017-06-13T19:12:43.330Z,19.60
2017-06-13T19:15:10.880Z,19.50
2017-06-13T19:17:38.527Z,19.40
2017-06-13T19:20:06.096Z,19.20
2017-06-13T19:22:33.626Z,19.00
2017-06-13T19:25:01.161Z,19.00
2017-06-13T19:27:28.720Z,18.90
2017-06-13T19:29:56.261Z,18.80
2017-06-13T19:32:23.810Z,18.70
2017-06-13T19:34:51.406Z,18.70
2017-06-13T19:37:18.989Z,18.60
2017-06-13T19:39:46.538Z,18.50
2017-06-13T19:42:14.147Z,18.40
2017-06-13T19:44:41.773Z,18.40
2017-06-13T19:47:09.329Z,18.30
2017-06-13T19:49:36.891Z,18.30
2017-06-13T19:52:04.505Z,18.20
2017-06-13T19:54:32.070Z,18.00
2017-06-13T19:56:59.650Z,17.90
2017-06-13T19:59:27.190Z,17.80
2017-06-13T20:01:54.745Z,17.70
2017-06-13T20:04:22.327Z,17.70
2017-06-13T20:06:50.569Z,17.70
2017-06-13T20:09:18.127Z,17.60
2017-06-13T20:11:45.713Z,17.60
2017-06-13T20:14:13.293Z,17.50
2017-06-13T20:16:40.841Z,17.40
2017-06-13T20:19:08.449Z,17.30
2017-06-13T20:21:41.566Z,17.20
2017-06-13T20:24:10.200Z,17.20
2017-06-13T20:26:37.771Z,17.10
2017-06-13T20:29:11.018Z,17.00
2017-06-13T20:31:38.646Z,17.00
2017-06-13T20:34:06.241Z,17.00
2017-06-13T20:36:33.870Z,16.90
2017-06-13T20:39:01.448Z,16.90
2017-06-13T20:41:29.005Z,16.80
2017-06-13T20:43:56.802Z,16.70
2017-06-13T20:46:24.341Z,16.60
2017-06-13T20:48:51.889Z,16.60
2017-06-13T20:51:19.566Z,16.50
2017-06-13T20:53:47.103Z,16.40
2017-06-13T20:56:14.671Z,16.40
2017-06-13T20:58:42.232Z,16.30
2017-06-13T21:01:09.777Z,16.20
2017-06-13T21:03:37.364Z,16.20
2017-06-13T21:06:04.927Z,16.10
2017-06-13T21:08:32.462Z,16.00
2017-06-13T21:11:00.051Z,16.10
2017-06-13T21:13:27.687Z,16.10
2017-06-13T21:15:55.230Z,16.10
2017-06-13T21:18:22.753Z,16.00
2017-06-13T21:20:50.305Z,16.00
2017-06-13T21:23:17.845Z,16.00
2017-06-13T21:25:45.407Z,15.80
2017-06-13T21:28:12.985Z,15.70
2017-06-13T21:30:40.574Z,15.60
2017-06-13T21:33:08.100Z,15.60
2017-06-13T21:35:35.764Z,15.50
2017-06-13T21:38:03.312Z,15.30
2017-06-13T21:40:30.842Z,15.20
2017-06-13T21:42:58.409Z,15.10
2017-06-13T21:45:25.971Z,15.00
2017-06-13T21:47:53.517Z,14.90
2017-06-13T21:50:21.098Z,14.90
2017-06-13T21:52:48.623Z,14.70
2017-06-13T21:55:16.190Z,14.70
2017-06-13T21:57:43.818Z,14.70
2017-06-13T22:00:11.358Z,14.70
2017-06-13T22:02:38.981Z,14.50
2017-06-13T22:05:06.774Z,14.50
2017-06-13T22:07:34.337Z,14.40
2017-06-13T22:10:01.888Z,14.40
2017-06-13T22:12:29.460Z,14.30
2017-06-13T22:14:57.001Z,14.30
2017-06-13T22:17:24.527Z,14.30
2017-06-13T22:19:52.086Z,14.30
2017-06-13T22:22:20.438Z,14.30
2017-06-13T22:24:47.971Z,14.20
2017-06-13T22:27:16.556Z,14.20
2017-06-13T22:29:44.698Z,14.10
2017-06-13T22:32:12.240Z,14.10
2017-06-13T22:34:39.786Z,14.10
2017-06-13T22:37:07.376Z,14.20
2017-06-13T22:39:34.935Z,14.20
2017-06-13T22:42:02.837Z,14.10
2017-06-13T22:44:30.389Z,14.10
2017-06-13T22:46:57.929Z,14.10
2017-06-13T22:49:25.489Z,14.00
2017-06-13T22:51:53.091Z,14.00
2017-06-13T22:54:20.639Z,13.90
2017-06-13T22:56:48.197Z,13.80
2017-06-13T22:59:15.741Z,13.80
2017-06-13T23:01:43.315Z,13.70
2017-06-13T23:04:10.896Z,13.60
2017-06-13T23:06:38.448Z,13.50
2017-06-13T23:09:05.998Z,13.50
2017-06-13T23:11:33.570Z,13.40
2017-06-13T23:14:01.130Z,13.30
2017-06-13T23:16:28.670Z,13.30
2017-06-13T23:18:56.288Z,13.30
2017-06-13T23:21:23.866Z,13.20
2017-06-13T23:23:51.424Z,13.20
2017-06-13T23:26:18.991Z,13.20
2017-06-13T23:28:46.529Z,13.20
2017-06-13T23:31:15.675Z,13.20
2017-06-13T23:33:43.248Z,13.20
2017-06-13T23:36:10.856Z,13.20
2017-06-13T23:38:38.428Z,13.30
2017-06-13T23:41:05.958Z,13.20
2017-06-13T23:43:33.548Z,13.10
2017-06-13T23:46:01.110Z,13.10
2017-06-13T23:48:28.661Z,13.00
2017-06-13T23:50:56.220Z,12.90
2017-06-13T23:53:23.790Z,12.80
2017-06-13T23:55:51.382Z,12.70
2017-06-13T23:58:19.940Z,12.80
